Time;durP1;ratioP1;P1;durP2;ratioP2;P2;SDS_P1;SDS_P2;PMS_P1;PMS_P2;Temp;Humidity;BMP_temperature;BMP_pressure;BME280_temperature;BME280_humidity;BME280_pressure;Samples;Min_cycle;Max_cycle;Signal;HPM_P1;HPM_P2
2023/09/29 00:00:34;;;;;;;4.47;3.80;;;22.80;72.30;23.80;100870.00;;;;5009298;28;20251;-49
2023/09/29 00:03:00;;;;;;;4.73;3.80;;;22.80;72.30;23.80;100865.00;;;;5008084;28;20207;-49
2023/09/29 00:05:27;;;;;;;4.93;3.63;;;22.80;71.80;23.70;100866.00;;;;5007174;28;20287;-49
2023/09/29 00:07:54;;;;;;;3.80;3.50;;;22.90;72.10;23.80;100868.00;;;;5007012;28;20182;-50
2023/09/29 00:10:23;;;;;;;4.03;3.70;;;22.90;72.20;23.80;100862.00;;;;5006805;28;20183;-50
2023/09/29 00:12:49;;;;;;;3.80;3.50;;;22.90;72.40;23.70;100853.00;;;;5006844;28;20697;-50
2023/09/29 00:15:17;;;;;;;4.20;3.80;;;22.90;72.10;23.80;100870.00;;;;5008471;28;20263;-50
2023/09/29 00:17:42;;;;;;;4.57;3.80;;;22.80;72.20;23.80;100868.00;;;;5008229;28;20697;-49
2023/09/29 00:20:23;;;;;;;4.33;3.60;;;22.80;72.20;23.70;100871.00;;;;5007021;28;20332;-49
2023/09/29 00:22:56;;;;;;;4.50;4.03;;;22.80;72.40;23.70;100882.00;;;;5008152;28;20203;-49
2023/09/29 00:25:23;;;;;;;3.70;3.40;;;22.80;72.40;23.70;100867.00;;;;5007270;28;20195;-49
2023/09/29 00:27:50;;;;;;;3.70;3.40;;;22.80;72.40;23.70;100863.00;;;;5007147;28;20194;-49
2023/09/29 00:30:16;;;;;;;4.10;3.37;;;22.80;72.20;23.70;100864.00;;;;5011035;28;20186;-50
2023/09/29 00:32:49;;;;;;;4.30;3.60;;;22.80;72.10;23.70;100864.00;;;;5012877;28;20191;-49
2023/09/29 00:35:27;;;;;;;3.97;3.50;;;22.80;71.70;23.70;100864.00;;;;5011956;28;20280;-49
2023/09/29 00:38:00;;;;;;;4.13;3.73;;;22.90;71.90;23.70;100865.00;;;;5012089;28;20287;-48
2023/09/29 00:40:26;;;;;;;4.23;3.67;;;22.80;71.90;23.70;100862.00;;;;5010924;28;20591;-49
2023/09/29 00:42:52;;;;;;;3.90;3.47;;;22.80;71.50;23.70;100865.00;;;;5010710;28;20202;-49
2023/09/29 00:45:25;;;;;;;3.60;3.30;;;22.90;71.60;23.60;100865.00;;;;5011996;28;20187;-49
2023/09/29 00:47:57;;;;;;;3.80;3.40;;;22.80;71.70;23.60;100855.00;;;;5010347;28;20861;-49
2023/09/29 00:50:24;;;;;;;3.93;3.37;;;22.80;71.40;23.60;100859.00;;;;5012046;28;20175;-50
2023/09/29 00:52:52;;;;;;;3.80;3.50;;;22.80;72.20;23.60;100859.00;;;;5011561;28;20199;-49
2023/09/29 00:55:22;;;;;;;4.20;3.80;;;22.90;71.60;23.60;100857.00;;;;5010626;28;20182;-49
2023/09/29 00:57:51;;;;;;;4.63;3.80;;;22.80;72.00;23.60;100856.00;;;;5009995;28;20172;-49
2023/09/29 01:02:45;;;;;;;3.73;3.40;;;22.80;71.70;23.60;100848.00;;;;5011811;28;20199;-49
2023/09/29 01:05:14;;;;;;;3.93;3.53;;;22.80;71.50;23.60;100849.00;;;;5010493;28;20191;-49
2023/09/29 01:07:43;;;;;;;3.77;3.47;;;22.80;71.80;23.60;100838.00;;;;5010143;28;20373;-50
2023/09/29 01:10:13;;;;;;;3.63;3.30;;;22.80;71.50;23.60;100833.00;;;;5007320;28;20168;-50
2023/09/29 01:12:40;;;;;;;3.70;3.40;;;22.80;71.80;23.60;100844.00;;;;5009910;28;20637;-50
2023/09/29 01:15:07;;;;;;;3.93;3.53;;;22.80;71.70;23.60;100830.00;;;;5011916;28;20244;-49
2023/09/29 01:17:33;;;;;;;4.00;3.60;;;22.70;72.20;23.60;100838.00;;;;5010431;28;20183;-50
2023/09/29 01:19:58;;;;;;;4.40;3.63;;;22.80;71.90;23.60;100820.00;;;;5010210;28;20754;-49
2023/09/29 01:22:26;;;;;;;3.83;3.43;;;22.70;72.20;23.60;100826.00;;;;5011372;28;20212;-49
2023/09/29 01:24:51;;;;;;;3.83;3.47;;;22.60;72.50;23.60;100812.00;;;;5011283;28;20182;-49
2023/09/29 01:27:17;;;;;;;4.20;3.80;;;22.60;72.90;23.60;100824.00;;;;5011386;28;20188;-49
2023/09/29 01:29:43;;;;;;;3.73;3.43;;;22.60;72.30;23.50;100812.00;;;;5010802;28;20179;-49
2023/09/29 01:32:14;;;;;;;4.17;3.50;;;22.60;72.60;23.50;100814.00;;;;5012645;28;20203;-49
2023/09/29 01:34:40;;;;;;;3.87;3.57;;;22.70;72.50;23.50;100812.00;;;;5033254;28;20202;-49
2023/09/29 01:37:07;;;;;;;4.00;3.60;;;22.50;72.70;23.50;100804.00;;;;5012485;28;20314;-49
2023/09/29 01:39:33;;;;;;;5.03;4.20;;;22.60;72.30;23.50;100816.00;;;;4993069;28;20295;-49
2023/09/29 01:42:00;;;;;;;4.57;4.00;;;22.50;72.80;23.50;100800.00;;;;5009786;28;20841;-49
2023/09/29 01:44:25;;;;;;;4.00;3.70;;;22.50;73.00;23.50;100803.00;;;;5009780;28;20184;-50
2023/09/29 01:46:51;;;;;;;4.83;3.90;;;22.50;73.10;23.50;100812.00;;;;5013378;28;20183;-49
2023/09/29 01:49:17;;;;;;;4.70;3.30;;;22.30;73.60;23.40;100812.00;;;;5029359;28;20172;-49
2023/09/29 01:51:44;;;;;;;5.13;3.43;;;22.40;73.30;23.40;100811.00;;;;5011086;28;20227;-49
2023/09/29 01:54:10;;;;;;;4.20;3.50;;;22.50;73.10;23.40;100811.00;;;;5010930;28;20184;-49
2023/09/29 01:56:35;;;;;;;4.33;3.43;;;22.50;73.80;23.40;100816.00;;;;5011108;28;20686;-48
2023/09/29 01:59:02;;;;;;;3.67;3.37;;;22.50;72.60;23.40;100802.00;;;;5011398;28;20725;-49
2023/09/29 02:01:29;;;;;;;3.87;3.47;;;22.40;72.80;23.40;100811.00;;;;5012083;28;20203;-50
2023/09/29 02:03:55;;;;;;;4.80;3.80;;;22.50;72.90;23.40;100815.00;;;;5009201;28;20172;-48
2023/09/29 02:06:21;;;;;;;4.90;3.67;;;22.40;73.10;23.40;100805.00;;;;5010578;28;20176;-48
2023/09/29 02:08:46;;;;;;;5.23;4.00;;;22.40;73.20;23.40;100810.00;;;;5010192;28;20176;-50
2023/09/29 02:11:12;;;;;;;3.77;3.47;;;22.40;73.40;23.40;100797.00;;;;5009544;28;20202;-49
2023/09/29 02:13:38;;;;;;;3.80;3.50;;;22.40;72.90;23.30;100794.00;;;;5010228;28;20187;-49
2023/09/29 02:16:14;;;;;;;3.80;3.40;;;22.50;72.90;23.40;100778.00;;;;5010557;28;20328;-49
2023/09/29 02:18:40;;;;;;;4.40;3.50;;;22.50;72.90;23.40;100789.00;;;;5010184;28;20198;-49
2023/09/29 02:21:06;;;;;;;3.87;3.40;;;22.50;73.00;23.40;100786.00;;;;5010238;28;20655;-49
2023/09/29 02:23:33;;;;;;;4.17;3.47;;;22.40;72.90;23.40;100761.00;;;;5010252;28;20198;-49
2023/09/29 02:26:00;;;;;;;4.23;3.33;;;22.40;73.10;23.30;100793.00;;;;5009035;28;20182;-49
2023/09/29 02:28:30;;;;;;;3.53;3.23;;;22.40;73.30;23.30;100782.00;;;;5010122;28;20211;-49
2023/09/29 02:30:57;;;;;;;3.83;3.43;;;22.40;73.20;23.30;100782.00;;;;5010280;28;20195;-50
2023/09/29 02:33:24;;;;;;;5.43;3.53;;;22.40;73.20;23.30;100778.00;;;;5009914;28;20207;-50
2023/09/29 02:35:50;;;;;;;3.60;3.30;;;22.30;73.30;23.30;100784.00;;;;5009626;28;20215;-49
2023/09/29 02:38:16;;;;;;;4.20;3.67;;;22.40;73.20;23.30;100789.00;;;;5009761;28;20554;-50
2023/09/29 02:40:42;;;;;;;4.20;3.80;;;22.30;73.30;23.30;100780.00;;;;5009330;28;20204;-50
2023/09/29 02:43:09;;;;;;;3.73;3.33;;;22.40;73.40;23.30;100769.00;;;;5009728;28;20203;-49
2023/09/29 02:45:40;;;;;;;4.37;3.80;;;22.30;73.50;23.30;100778.00;;;;5009793;28;20186;-49
2023/09/29 02:48:06;;;;;;;5.07;3.50;;;22.20;73.70;23.30;100778.00;;;;5009345;28;20184;-49
2023/09/29 02:50:36;;;;;;;3.40;3.10;;;22.20;73.60;23.20;100775.00;;;;5009375;28;20642;-50
2023/09/29 02:53:05;;;;;;;3.67;3.33;;;22.20;73.60;23.20;100784.00;;;;5008763;28;20234;-49
2023/09/29 02:55:30;;;;;;;3.57;3.27;;;22.20;73.70;23.20;100786.00;;;;5010244;28;20203;-49
2023/09/29 02:57:56;;;;;;;3.80;3.33;;;22.30;73.50;23.20;100723.00;;;;5008068;28;20204;-50
2023/09/29 03:00:26;;;;;;;3.80;3.40;;;22.30;73.30;23.20;100786.00;;;;5010093;28;20258;-49
2023/09/29 03:02:52;;;;;;;3.70;3.30;;;22.20;73.80;23.20;100784.00;;;;5010761;28;20295;-49
2023/09/29 03:05:21;;;;;;;3.70;3.30;;;22.30;73.40;23.10;100781.00;;;;5010969;28;20686;-48
2023/09/29 03:07:47;;;;;;;3.73;3.30;;;22.20;73.20;23.10;100769.00;;;;5010589;28;20262;-49
2023/09/29 03:10:16;;;;;;;4.60;3.53;;;22.20;73.30;23.10;100766.00;;;;5010614;28;20681;-50
2023/09/29 03:12:43;;;;;;;4.13;3.40;;;22.20;73.50;23.10;100767.00;;;;5010550;28;20227;-49
2023/09/29 03:15:15;;;;;;;3.80;3.20;;;22.30;73.30;23.10;100764.00;;;;5010631;28;20171;-49
2023/09/29 03:17:41;;;;;;;4.50;3.30;;;22.20;73.20;23.10;100770.00;;;;5010109;28;20215;-48
2023/09/29 03:20:12;;;;;;;3.50;3.20;;;22.30;73.30;23.10;100764.00;;;;5009260;28;20188;-49
2023/09/29 03:22:43;;;;;;;4.90;3.17;;;22.20;74.10;23.10;100765.00;;;;5010393;28;20294;-49
2023/09/29 03:25:16;;;;;;;4.63;3.20;;;22.20;74.10;23.10;100753.00;;;;5010562;28;20245;-49
2023/09/29 03:27:42;;;;;;;7.57;3.50;;;22.30;73.60;23.10;100759.00;;;;5010148;28;20195;-49
2023/09/29 03:30:09;;;;;;;6.67;3.37;;;22.20;74.40;23.10;100754.00;;;;5010293;28;20183;-49
2023/09/29 03:32:35;;;;;;;5.07;3.10;;;22.20;73.90;23.00;100754.00;;;;5019839;28;20193;-49
2023/09/29 03:35:01;;;;;;;5.17;3.10;;;22.20;73.80;23.00;100749.00;;;;5027987;28;20239;-48
2023/09/29 03:37:27;;;;;;;3.80;2.93;;;22.20;73.70;23.00;100751.00;;;;5010257;28;20269;-48
2023/09/29 03:39:54;;;;;;;6.50;3.90;;;22.20;73.70;23.00;100757.00;;;;5010055;28;20703;-49
2023/09/29 03:42:20;;;;;;;4.90;3.47;;;22.20;73.50;23.00;100753.00;;;;5009952;28;20311;-49
2023/09/29 03:44:46;;;;;;;6.50;3.40;;;22.20;73.50;23.00;100742.00;;;;5010118;28;20186;-49
2023/09/29 03:47:12;;;;;;;4.47;3.40;;;22.20;73.40;23.00;100748.00;;;;5019442;28;20222;-49
2023/09/29 03:49:38;;;;;;;5.77;2.90;;;22.30;73.50;23.10;100740.00;;;;5022847;28;20183;-49
2023/09/29 03:52:08;;;;;;;4.17;3.10;;;22.20;73.20;23.00;100745.00;;;;5008804;28;20257;-49
2023/09/29 03:54:34;;;;;;;3.90;3.10;;;22.20;74.20;23.00;100746.00;;;;5008582;28;20187;-49
2023/09/29 03:57:03;;;;;;;6.13;3.03;;;22.20;73.20;23.00;100735.00;;;;5005861;28;20899;-49
2023/09/29 03:59:29;;;;;;;3.77;3.43;;;22.20;73.60;23.00;100742.00;;;;5009075;28;20214;-49
2023/09/29 04:01:55;;;;;;;3.37;3.07;;;22.20;73.70;23.10;100737.00;;;;5008526;28;20705;-50
2023/09/29 04:04:21;;;;;;;3.77;3.20;;;22.20;73.80;23.10;100736.00;;;;5008928;28;20223;-50
2023/09/29 04:06:47;;;;;;;3.57;3.03;;;22.20;73.60;23.10;100731.00;;;;5008885;28;20190;-49
2023/09/29 04:09:12;;;;;;;3.40;3.10;;;22.20;73.30;23.10;100737.00;;;;5008944;28;20187;-49
2023/09/29 04:11:40;;;;;;;3.53;3.20;;;22.20;73.60;23.00;100751.00;;;;5008312;28;20199;-49
2023/09/29 04:14:06;;;;;;;4.27;3.03;;;22.20;73.60;23.00;100742.00;;;;5009192;28;20196;-49
2023/09/29 04:16:32;;;;;;;3.20;2.90;;;22.20;73.60;23.00;100741.00;;;;5009300;28;20270;-49
2023/09/29 04:18:57;;;;;;;3.40;3.10;;;22.20;73.80;23.00;100737.00;;;;5008674;28;20279;-49
2023/09/29 04:21:24;;;;;;;5.27;2.93;;;22.20;73.70;23.00;100733.00;;;;5008919;28;20711;-49
2023/09/29 04:23:49;;;;;;;3.30;3.00;;;22.20;74.10;23.00;100729.00;;;;5008738;28;20215;-49
2023/09/29 04:26:18;;;;;;;5.97;3.27;;;22.20;74.50;23.00;100719.00;;;;5008872;28;20211;-49
2023/09/29 04:28:44;;;;;;;3.80;3.30;;;22.20;74.00;23.00;100703.00;;;;5008679;28;20183;-49
2023/09/29 04:31:10;;;;;;;4.20;3.23;;;22.20;74.30;23.00;100715.00;;;;5008849;28;20198;-49
2023/09/29 04:33:37;;;;;;;3.30;3.00;;;22.10;74.30;22.90;100721.00;;;;5008379;28;20207;-49
2023/09/29 04:36:02;;;;;;;3.93;3.33;;;22.10;74.40;23.00;100711.00;;;;5008393;28;20270;-50
2023/09/29 04:38:28;;;;;;;3.30;3.00;;;22.10;74.30;22.90;100702.00;;;;5008617;28;20229;-49
2023/09/29 04:40:54;;;;;;;3.43;3.13;;;22.10;74.50;22.90;100700.00;;;;5008781;28;20777;-48
2023/09/29 04:43:20;;;;;;;3.80;3.20;;;22.10;74.30;22.90;100684.00;;;;5008871;28;20607;-50
2023/09/29 04:45:46;;;;;;;3.57;3.00;;;22.10;74.30;22.90;100682.00;;;;4990809;28;20187;-49
2023/09/29 04:48:11;;;;;;;3.33;3.00;;;22.10;74.50;22.80;100696.00;;;;5007186;28;20532;-46
2023/09/29 04:50:37;;;;;;;3.70;3.10;;;22.00;74.60;22.80;100706.00;;;;5008776;28;20557;-47
2023/09/29 04:53:03;;;;;;;4.23;3.13;;;22.10;74.30;22.80;100701.00;;;;5008699;28;20208;-47
2023/09/29 04:55:29;;;;;;;3.07;2.77;;;22.10;74.30;22.90;100708.00;;;;5008427;28;20179;-46
2023/09/29 04:57:55;;;;;;;5.33;3.00;;;22.10;74.30;22.90;100703.00;;;;4990995;28;20347;-47
2023/09/29 05:00:21;;;;;;;3.33;3.03;;;22.10;74.30;22.90;100708.00;;;;5008735;28;20248;-46
2023/09/29 05:02:47;;;;;;;3.50;3.20;;;22.00;74.20;22.90;100654.00;;;;5008451;28;20888;-45
2023/09/29 05:05:13;;;;;;;4.40;3.40;;;22.10;74.30;22.90;100710.00;;;;4989114;28;20171;-47
2023/09/29 05:07:39;;;;;;;3.50;3.20;;;22.20;74.40;22.90;100700.00;;;;5007376;28;20179;-50
2023/09/29 05:10:06;;;;;;;3.57;3.00;;;22.10;73.70;22.90;100709.00;;;;5008507;28;20179;-46
2023/09/29 05:12:32;;;;;;;5.07;3.30;;;22.10;74.20;22.90;100720.00;;;;5007932;28;20275;-46
2023/09/29 05:14:58;;;;;;;5.87;3.30;;;22.10;74.60;22.90;100708.00;;;;5008834;28;20665;-48
2023/09/29 05:17:24;;;;;;;3.87;3.47;;;22.10;74.30;22.90;100700.00;;;;5012294;28;20182;-46
2023/09/29 05:19:50;;;;;;;4.43;3.63;;;22.10;74.30;22.90;100698.00;;;;5012243;28;20732;-46
2023/09/29 05:22:15;;;;;;;3.83;3.20;;;22.10;74.30;22.90;100688.00;;;;5010146;28;20230;-46
2023/09/29 05:24:41;;;;;;;3.37;3.00;;;22.10;74.80;22.90;100689.00;;;;4994411;28;20167;-45
2023/09/29 05:27:07;;;;;;;3.40;3.10;;;22.00;74.50;22.90;100691.00;;;;5011730;28;20179;-48
2023/09/29 05:29:32;;;;;;;3.60;3.30;;;22.00;74.60;22.90;100685.00;;;;5012526;28;20179;-49
2023/09/29 05:31:58;;;;;;;3.40;3.10;;;22.00;74.30;22.80;100678.00;;;;5011806;28;20199;-51
2023/09/29 05:34:24;;;;;;;3.73;3.30;;;21.90;74.80;22.80;100673.00;;;;5027659;28;20210;-49
2023/09/29 05:36:50;;;;;;;4.63;3.60;;;22.00;74.60;22.70;100682.00;;;;5015156;28;20206;-49
2023/09/29 05:39:16;;;;;;;4.17;3.40;;;21.90;75.40;22.70;100673.00;;;;5010530;28;20282;-49
2023/09/29 05:41:41;;;;;;;3.67;3.30;;;22.00;75.10;22.70;100671.00;;;;5010026;28;20277;-49
2023/09/29 05:44:08;;;;;;;3.50;3.20;;;22.00;74.70;22.70;100668.00;;;;5012921;28;20188;-49
2023/09/29 05:46:34;;;;;;;3.60;3.30;;;22.00;74.90;22.70;100662.00;;;;5015538;28;20233;-48
2023/09/29 05:48:59;;;;;;;3.40;3.10;;;21.90;74.60;22.70;100660.00;;;;5025690;28;20179;-49
2023/09/29 05:51:25;;;;;;;4.33;3.50;;;21.90;75.00;22.70;100668.00;;;;5011733;28;20186;-49
2023/09/29 05:53:51;;;;;;;3.40;3.10;;;21.80;75.50;22.70;100671.00;;;;5011373;28;20187;-50
2023/09/29 05:56:17;;;;;;;3.77;3.40;;;21.90;75.00;22.70;100677.00;;;;5010834;28;20195;-50
2023/09/29 05:58:43;;;;;;;3.63;3.33;;;21.90;74.80;22.70;100685.00;;;;5011210;28;20195;-49
2023/09/29 06:01:10;;;;;;;3.50;3.20;;;21.90;75.00;22.70;100684.00;;;;5011115;28;20209;-49
2023/09/29 06:03:37;;;;;;;3.33;3.10;;;21.90;74.60;22.70;100697.00;;;;5010796;28;20681;-49
2023/09/29 06:06:03;;;;;;;3.23;2.93;;;21.90;75.10;22.70;100701.00;;;;5010725;28;20574;-49
2023/09/29 06:08:29;;;;;;;3.83;2.90;;;21.90;74.80;22.70;100688.00;;;;5009133;28;20188;-49
2023/09/29 06:10:54;;;;;;;4.40;3.07;;;21.90;75.70;22.70;100695.00;;;;5009816;28;20187;-49
2023/09/29 06:13:20;;;;;;;5.43;2.93;;;22.00;74.80;22.80;100700.00;;;;5005274;28;20765;-49
2023/09/29 06:15:46;;;;;;;3.57;3.27;;;22.00;75.00;22.80;100694.00;;;;5010171;28;20716;-49
2023/09/29 06:18:11;;;;;;;3.47;3.13;;;22.00;74.50;22.80;100692.00;;;;5009510;28;20191;-50
2023/09/29 06:20:37;;;;;;;3.57;3.00;;;22.00;74.70;22.80;100684.00;;;;5009548;28;20191;-50
2023/09/29 06:23:04;;;;;;;3.50;3.17;;;22.10;74.40;22.80;100681.00;;;;5010828;28;20203;-50
2023/09/29 06:25:30;;;;;;;3.43;3.10;;;22.10;74.30;22.80;100676.00;;;;5008837;28;20202;-49
2023/09/29 06:27:56;;;;;;;5.33;3.30;;;22.10;74.30;22.90;100681.00;;;;5009409;28;20199;-50
2023/09/29 06:30:22;;;;;;;3.63;3.10;;;22.10;74.50;22.90;100676.00;;;;4992839;28;20183;-49
2023/09/29 06:32:48;;;;;;;3.60;2.90;;;22.10;74.20;22.90;100676.00;;;;5010565;28;20576;-50
2023/09/29 06:35:14;;;;;;;3.90;3.00;;;22.10;74.30;22.90;100678.00;;;;5009801;28;20188;-50
2023/09/29 06:37:41;;;;;;;3.07;2.77;;;22.10;74.10;22.90;100677.00;;;;5008762;28;20241;-49
2023/09/29 06:40:11;;;;;;;3.90;3.10;;;22.10;74.30;22.90;100681.00;;;;5010165;28;20187;-49
2023/09/29 06:42:40;;;;;;;3.33;3.03;;;22.10;74.30;22.90;100697.00;;;;5009635;28;20219;-49
2023/09/29 06:45:07;;;;;;;4.13;2.90;;;22.10;74.00;22.90;100685.00;;;;5010025;28;20176;-49
2023/09/29 06:47:34;;;;;;;3.20;2.90;;;22.00;74.20;22.80;100681.00;;;;5010313;28;20187;-49
2023/09/29 06:50:00;;;;;;;3.10;2.80;;;22.10;74.30;22.90;100691.00;;;;5008424;28;20270;-49
2023/09/29 06:52:25;;;;;;;3.30;3.00;;;22.10;74.30;22.90;100674.00;;;;5008736;28;20290;-49
2023/09/29 06:54:51;;;;;;;4.00;3.10;;;22.10;74.40;22.90;100671.00;;;;4976601;28;20620;-49
2023/09/29 06:57:17;;;;;;;3.37;2.83;;;22.10;74.30;22.90;100667.00;;;;5010171;28;20212;-49
2023/09/29 06:59:43;;;;;;;2.90;2.70;;;22.10;74.30;22.90;100681.00;;;;5009500;28;20183;-49
2023/09/29 07:02:08;;;;;;;3.70;3.07;;;22.10;74.30;22.90;100675.00;;;;5008642;28;20219;-49
2023/09/29 07:04:34;;;;;;;5.33;3.30;;;22.00;74.10;22.90;100679.00;;;;5009966;28;20184;-49
2023/09/29 07:07:00;;;;;;;10.13;3.53;;;22.00;74.20;22.90;100681.00;;;;5009802;28;20175;-49
2023/09/29 07:09:26;;;;;;;8.37;3.50;;;22.00;74.60;22.90;100653.00;;;;5008403;28;20602;-50
2023/09/29 07:11:52;;;;;;;5.70;3.27;;;22.00;74.30;22.90;100665.00;;;;5008215;28;20207;-49
2023/09/29 07:14:17;;;;;;;5.67;3.20;;;22.10;74.30;22.90;100673.00;;;;5008324;28;20198;-49
2023/09/29 07:16:44;;;;;;;3.70;3.00;;;22.10;74.70;22.90;100670.00;;;;5009655;28;20196;-49
2023/09/29 07:19:12;;;;;;;3.43;3.10;;;22.10;74.70;22.90;100675.00;;;;5009666;28;20202;-49
2023/09/29 07:21:38;;;;;;;3.77;3.37;;;22.00;74.60;22.90;100673.00;;;;5009630;28;20216;-48
2023/09/29 07:24:07;;;;;;;3.43;3.10;;;22.00;74.70;22.90;100672.00;;;;5009527;28;20643;-48
2023/09/29 07:26:33;;;;;;;4.27;3.13;;;22.10;74.90;22.90;100670.00;;;;5009738;28;20646;-48
2023/09/29 07:29:01;;;;;;;4.83;3.53;;;22.00;74.70;22.90;100675.00;;;;5009312;28;20187;-49
2023/09/29 07:31:36;;;;;;;3.53;3.03;;;21.90;75.90;22.90;100672.00;;;;5009542;28;20188;-49
2023/09/29 07:34:02;;;;;;;3.37;3.07;;;21.90;76.40;22.90;100666.00;;;;5023846;28;20243;-48
2023/09/29 07:36:33;;;;;;;3.60;3.30;;;21.90;75.80;22.90;100667.00;;;;4985300;28;20564;-50
2023/09/29 07:38:59;;;;;;;4.60;3.67;;;21.90;76.40;22.90;100671.00;;;;5009411;28;20222;-49
2023/09/29 07:41:24;;;;;;;4.60;3.20;;;21.90;76.70;22.80;100682.00;;;;5009298;28;20198;-48
2023/09/29 07:43:51;;;;;;;4.77;3.50;;;21.80;77.30;22.80;100684.00;;;;5008163;28;20681;-48
2023/09/29 07:46:16;;;;;;;4.63;3.30;;;21.80;77.40;22.80;100691.00;;;;5008471;28;20295;-48
2023/09/29 07:48:42;;;;;;;4.93;3.50;;;21.80;77.70;22.80;100678.00;;;;5023024;28;20176;-48
2023/09/29 07:51:08;;;;;;;4.70;3.40;;;21.80;78.10;22.80;100661.00;;;;5016277;28;20191;-48
2023/09/29 07:53:34;;;;;;;3.87;3.10;;;21.80;77.60;22.50;100673.00;;;;4991909;28;20199;-48
2023/09/29 07:55:59;;;;;;;3.70;3.23;;;21.80;78.00;22.70;100664.00;;;;5009882;28;20405;-48
2023/09/29 07:58:25;;;;;;;3.93;3.30;;;21.80;78.00;22.70;100680.00;;;;4992619;28;20195;-48
2023/09/29 08:00:51;;;;;;;5.03;3.40;;;21.80;78.00;22.70;100683.00;;;;5009002;28;20278;-48
2023/09/29 08:03:17;;;;;;;4.07;3.37;;;21.80;77.90;22.70;100682.00;;;;4991905;28;20579;-49
2023/09/29 08:05:43;;;;;;;4.23;3.20;;;21.80;77.90;22.70;100674.00;;;;4975826;28;20624;-48
2023/09/29 08:08:08;;;;;;;5.90;3.30;;;21.80;78.20;22.70;100668.00;;;;5009061;28;20183;-48
2023/09/29 08:10:35;;;;;;;4.00;3.20;;;21.80;78.00;22.70;100672.00;;;;5009036;28;20188;-48
2023/09/29 08:13:01;;;;;;;3.30;3.07;;;21.80;77.70;22.70;100672.00;;;;5009375;28;20299;-49
2023/09/29 08:15:26;;;;;;;4.17;3.50;;;21.80;77.60;22.70;100672.00;;;;5009649;28;20180;-48
2023/09/29 08:17:52;;;;;;;4.33;3.50;;;21.90;78.10;22.70;100673.00;;;;5008137;28;20215;-48
2023/09/29 08:20:19;;;;;;;4.23;3.60;;;21.80;77.90;22.70;100674.00;;;;5009516;28;20312;-49
2023/09/29 08:22:45;;;;;;;4.20;3.10;;;21.80;78.40;22.70;100668.00;;;;5009117;28;20231;-52
2023/09/29 08:25:11;;;;;;;4.93;3.50;;;21.80;78.30;22.70;100669.00;;;;5009380;28;20242;-48
2023/09/29 08:27:37;;;;;;;4.03;3.33;;;21.80;78.30;22.70;100667.00;;;;5009312;28;20839;-48
2023/09/29 08:30:04;;;;;;;4.47;3.23;;;21.80;78.80;22.70;100668.00;;;;5009076;28;20182;-48
2023/09/29 08:32:30;;;;;;;4.33;3.30;;;21.80;78.60;22.70;100676.00;;;;5009257;28;20687;-49
2023/09/29 08:34:56;;;;;;;4.67;3.20;;;21.80;78.50;22.70;100666.00;;;;5008369;28;20278;-49
2023/09/29 08:37:22;;;;;;;4.37;3.10;;;21.90;78.40;22.70;100678.00;;;;5007719;28;20187;-48
2023/09/29 08:39:48;;;;;;;4.87;3.47;;;21.80;78.70;22.70;100682.00;;;;5009224;28;20191;-49
2023/09/29 08:42:29;;;;;;;4.20;3.33;;;21.80;78.60;22.70;100680.00;;;;5007920;28;20222;-49
2023/09/29 08:44:55;;;;;;;4.73;3.50;;;21.80;79.20;22.70;100675.00;;;;4992783;28;20745;-48
2023/09/29 08:47:21;;;;;;;4.67;3.27;;;21.80;79.00;22.70;100657.00;;;;5007671;28;20318;-48
2023/09/29 08:49:48;;;;;;;4.63;3.40;;;21.80;79.20;22.70;100676.00;;;;4975912;28;20177;-49
2023/09/29 08:52:13;;;;;;;3.83;3.40;;;21.80;79.40;22.80;100676.00;;;;4979313;28;20210;-49
2023/09/29 08:54:39;;;;;;;4.23;3.83;;;21.80;79.60;22.70;100676.00;;;;5011528;28;20183;-48
2023/09/29 08:57:05;;;;;;;4.90;3.43;;;21.80;79.70;22.80;100673.00;;;;5012800;28;20184;-49
2023/09/29 08:59:31;;;;;;;4.77;3.57;;;21.80;79.50;22.80;100673.00;;;;4995028;28;20183;-48
2023/09/29 09:01:58;;;;;;;3.97;3.47;;;21.80;79.60;22.80;100664.00;;;;5011564;28;20215;-48
2023/09/29 09:04:24;;;;;;;4.80;3.87;;;21.90;79.90;22.80;100677.00;;;;5011515;28;20677;-48
2023/09/29 09:06:50;;;;;;;3.77;3.47;;;21.80;79.70;22.80;100688.00;;;;5012716;28;20583;-49
2023/09/29 09:09:23;;;;;;;4.43;3.73;;;21.80;79.90;22.80;100683.00;;;;5012573;28;20180;-49
2023/09/29 09:11:48;;;;;;;6.93;3.77;;;21.80;79.90;22.80;100697.00;;;;5009743;28;20226;-51
2023/09/29 09:14:15;;;;;;;6.73;3.80;;;21.90;80.00;22.80;100696.00;;;;5012460;28;20192;-48
2023/09/29 09:16:41;;;;;;;5.40;3.80;;;21.90;80.40;22.80;100698.00;;;;5012564;28;20187;-48
2023/09/29 09:19:14;;;;;;;7.17;3.60;;;21.90;80.50;22.80;100707.00;;;;5011633;28;20249;-49
2023/09/29 09:21:42;;;;;;;4.10;3.53;;;21.90;80.50;22.80;100715.00;;;;5012469;28;20219;-48
2023/09/29 09:24:22;;;;;;;4.97;3.93;;;21.90;80.40;22.90;100712.00;;;;5009947;28;20183;-49
2023/09/29 09:26:48;;;;;;;4.10;3.70;;;21.90;80.20;22.80;100716.00;;;;5011737;28;20215;-49
2023/09/29 09:29:17;;;;;;;4.23;3.73;;;21.90;80.20;22.90;100713.00;;;;5011822;28;20206;-50
2023/09/29 09:31:47;;;;;;;5.80;4.03;;;22.00;80.60;22.90;100717.00;;;;5007605;28;20200;-48
2023/09/29 09:34:15;;;;;;;5.03;3.90;;;22.00;80.50;22.90;100717.00;;;;5016042;28;20179;-49
2023/09/29 09:36:52;;;;;;;4.50;3.90;;;22.10;80.50;22.90;100710.00;;;;5027042;28;20180;-49
2023/09/29 09:39:24;;;;;;;5.20;3.90;;;22.10;80.60;23.00;100713.00;;;;5010260;28;20199;-49
2023/09/29 09:41:54;;;;;;;4.33;3.93;;;22.10;79.60;23.00;100713.00;;;;5010075;28;20222;-49
2023/09/29 09:44:21;;;;;;;4.20;3.70;;;22.20;80.10;23.00;100721.00;;;;5010285;28;20202;-48
2023/09/29 09:47:03;;;;;;;4.60;3.80;;;22.20;79.30;23.10;100709.00;;;;5010241;28;20676;-50
2023/09/29 09:49:46;;;;;;;6.00;4.07;;;22.20;80.00;23.10;100712.00;;;;5020679;28;20692;-49
2023/09/29 09:52:15;;;;;;;5.93;4.50;;;22.20;79.80;23.10;100711.00;;;;5014829;28;20203;-49
2023/09/29 09:54:56;;;;;;;5.43;4.20;;;22.30;80.20;23.10;100721.00;;;;4977253;28;20179;-48
2023/09/29 09:57:34;;;;;;;5.20;4.00;;;22.30;79.60;23.10;100718.00;;;;5008557;28;20187;-49
2023/09/29 10:00:09;;;;;;;4.60;4.20;;;22.40;80.50;23.10;100729.00;;;;5005737;28;20191;-48
2023/09/29 10:02:43;;;;;;;4.53;3.70;;;22.40;79.50;23.10;100725.00;;;;5009216;28;20221;-47
2023/09/29 10:05:22;;;;;;;5.43;3.80;;;22.40;79.40;23.10;100728.00;;;;4993330;28;20237;-48
2023/09/29 10:07:49;;;;;;;5.73;3.73;;;22.40;79.00;23.10;100740.00;;;;5008292;28;20183;-49
2023/09/29 10:10:31;;;;;;;4.37;3.90;;;22.40;78.30;23.10;100759.00;;;;5009515;28;20635;-49
2023/09/29 10:13:01;;;;;;;4.63;3.70;;;22.40;78.20;23.10;100756.00;;;;5009589;28;20291;-49
2023/09/29 10:15:30;;;;;;;4.97;3.43;;;22.30;78.30;23.10;100756.00;;;;5005360;28;20816;-48
2023/09/29 10:17:59;;;;;;;5.10;3.80;;;22.30;77.90;23.10;100760.00;;;;5008224;28;20823;-48
2023/09/29 10:20:29;;;;;;;4.93;3.10;;;22.30;78.00;23.10;100771.00;;;;5008739;28;20218;-49
2023/09/29 10:23:13;;;;;;;8.90;3.20;;;22.30;78.00;23.10;100761.00;;;;5009711;28;20227;-49
2023/09/29 10:25:41;;;;;;;4.07;3.03;;;22.20;76.90;23.00;100769.00;;;;5010386;28;20207;-49
2023/09/29 10:28:07;;;;;;;4.53;3.17;;;22.10;76.90;23.00;100771.00;;;;5009561;28;20342;-48
2023/09/29 10:30:38;;;;;;;6.83;3.10;;;22.10;76.50;23.00;100765.00;;;;5011092;28;20678;-48
2023/09/29 10:33:13;;;;;;;3.77;3.00;;;22.10;76.70;23.00;100773.00;;;;5009462;28;20254;-49
2023/09/29 10:35:46;;;;;;;3.90;3.20;;;22.10;76.50;22.90;100773.00;;;;5009076;28;20261;-49
2023/09/29 10:38:26;;;;;;;5.87;3.40;;;22.10;76.20;22.90;100772.00;;;;5008519;28;20187;-50
2023/09/29 10:40:55;;;;;;;5.90;3.70;;;22.10;75.80;22.90;100778.00;;;;5008896;28;20710;-49
2023/09/29 10:43:24;;;;;;;5.77;3.80;;;22.10;75.30;22.90;100776.00;;;;5007713;28;20685;-50
2023/09/29 10:45:50;;;;;;;8.93;4.10;;;22.00;75.30;22.90;100793.00;;;;5008445;28;20176;-49
2023/09/29 10:48:23;;;;;;;6.80;4.17;;;22.10;75.30;22.90;100788.00;;;;5008726;28;20201;-49
2023/09/29 10:50:50;;;;;;;6.40;4.40;;;22.10;75.00;22.90;100797.00;;;;5009161;28;20183;-49